sensor_id;sensor_type;location;lat;lon;timestamp;temperature;humidity
18753;DHT22;9505;50.882;5.350;2022-12-20T00:02:09;12.40;99.90
18753;DHT22;9505;50.882;5.350;2022-12-20T00:04:35;12.40;99.90
18753;DHT22;9505;50.882;5.350;2022-12-20T00:07:00;12.40;99.90
18753;DHT22;9505;50.882;5.350;2022-12-20T00:09:26;12.40;99.90
18753;DHT22;9505;50.882;5.350;2022-12-20T00:11:52;12.40;99.90
18753;DHT22;9505;50.882;5.350;2022-12-20T00:14:17;12.40;99.90
18753;DHT22;9505;50.882;5.350;2022-12-20T00:16:43;12.40;99.90
18753;DHT22;9505;50.882;5.350;2022-12-20T00:19:09;12.40;99.90
18753;DHT22;9505;50.882;5.350;2022-12-20T00:21:36;12.30;99.90
18753;DHT22;9505;50.882;5.350;2022-12-20T00:24:03;12.40;99.90
18753;DHT22;9505;50.882;5.350;2022-12-20T00:26:31;12.40;99.90
18753;DHT22;9505;50.882;5.350;2022-12-20T00:28:58;12.40;99.90
18753;DHT22;9505;50.882;5.350;2022-12-20T00:31:26;12.40;99.90
18753;DHT22;9505;50.882;5.350;2022-12-20T00:33:53;12.40;99.90
18753;DHT22;9505;50.882;5.350;2022-12-20T00:36:20;12.40;99.90
18753;DHT22;9505;50.882;5.350;2022-12-20T00:38:47;12.30;99.90
18753;DHT22;9505;50.882;5.350;2022-12-20T00:41:18;12.30;99.90
18753;DHT22;9505;50.882;5.350;2022-12-20T00:43:45;12.30;99.90
18753;DHT22;9505;50.882;5.350;2022-12-20T00:46:12;12.20;99.90
18753;DHT22;9505;50.882;5.350;2022-12-20T00:48:38;12.20;99.90
18753;DHT22;9505;50.882;5.350;2022-12-20T00:51:09;12.20;99.90
18753;DHT22;9505;50.882;5.350;2022-12-20T00:53:35;12.10;99.90
18753;DHT22;9505;50.882;5.350;2022-12-20T00:56:01;12.10;99.90
18753;DHT22;9505;50.882;5.350;2022-12-20T00:58:27;12.00;99.90
18753;DHT22;9505;50.882;5.350;2022-12-20T01:00:54;12.00;99.90
18753;DHT22;9505;50.882;5.350;2022-12-20T01:03:20;12.10;99.90
18753;DHT22;9505;50.882;5.350;2022-12-20T01:05:53;12.10;99.90
18753;DHT22;9505;50.882;5.350;2022-12-20T01:08:19;12.10;99.90
18753;DHT22;9505;50.882;5.350;2022-12-20T01:10:45;12.20;99.90
18753;DHT22;9505;50.882;5.350;2022-12-20T01:13:11;12.20;99.90
18753;DHT22;9505;50.882;5.350;2022-12-20T01:15:37;12.10;99.90
18753;DHT22;9505;50.882;5.350;2022-12-20T01:18:03;12.10;99.90
18753;DHT22;9505;50.882;5.350;2022-12-20T01:20:28;12.10;99.90
18753;DHT22;9505;50.882;5.350;2022-12-20T01:22:54;12.20;99.90
18753;DHT22;9505;50.882;5.350;2022-12-20T01:25:19;12.20;99.90
18753;DHT22;9505;50.882;5.350;2022-12-20T01:27:45;12.10;99.90
18753;DHT22;9505;50.882;5.350;2022-12-20T01:30:11;12.10;99.90
18753;DHT22;9505;50.882;5.350;2022-12-20T01:32:36;12.10;99.90
18753;DHT22;9505;50.882;5.350;2022-12-20T01:35:02;12.10;99.90
18753;DHT22;9505;50.882;5.350;2022-12-20T01:37:28;12.10;99.90
18753;DHT22;9505;50.882;5.350;2022-12-20T01:39:54;12.00;99.90
18753;DHT22;9505;50.882;5.350;2022-12-20T01:42:19;12.00;99.90
18753;DHT22;9505;50.882;5.350;2022-12-20T01:47:11;12.00;99.90
18753;DHT22;9505;50.882;5.350;2022-12-20T01:49:41;12.00;99.90
18753;DHT22;9505;50.882;5.350;2022-12-20T01:52:13;12.10;99.90
18753;DHT22;9505;50.882;5.350;2022-12-20T01:54:51;12.10;99.90
18753;DHT22;9505;50.882;5.350;2022-12-20T01:57:23;12.00;99.90
18753;DHT22;9505;50.882;5.350;2022-12-20T01:59:50;12.00;99.90
18753;DHT22;9505;50.882;5.350;2022-12-20T02:02:17;11.90;99.90
18753;DHT22;9505;50.882;5.350;2022-12-20T02:04:42;11.80;99.90
18753;DHT22;9505;50.882;5.350;2022-12-20T02:07:12;11.80;99.90
18753;DHT22;9505;50.882;5.350;2022-12-20T02:09:41;11.80;99.90
18753;DHT22;9505;50.882;5.350;2022-12-20T02:31:25;11.40;99.90
18753;DHT22;9505;50.882;5.350;2022-12-20T02:33:54;11.40;99.90
18753;DHT22;9505;50.882;5.350;2022-12-20T02:36:22;11.40;99.90
18753;DHT22;9505;50.882;5.350;2022-12-20T02:38:48;11.40;99.90
18753;DHT22;9505;50.882;5.350;2022-12-20T02:43:45;11.50;99.90
18753;DHT22;9505;50.882;5.350;2022-12-20T02:46:31;11.50;99.90
18753;DHT22;9505;50.882;5.350;2022-12-20T02:49:03;11.40;99.90
18753;DHT22;9505;50.882;5.350;2022-12-20T02:51:31;11.40;99.90
18753;DHT22;9505;50.882;5.350;2022-12-20T02:53:58;11.30;99.90
18753;DHT22;9505;50.882;5.350;2022-12-20T02:56:37;11.30;99.90
18753;DHT22;9505;50.882;5.350;2022-12-20T02:59:24;11.20;99.90
18753;DHT22;9505;50.882;5.350;2022-12-20T03:01:53;11.20;99.90
18753;DHT22;9505;50.882;5.350;2022-12-20T03:04:26;11.20;99.90
18753;DHT22;9505;50.882;5.350;2022-12-20T03:07:07;11.30;99.90
18753;DHT22;9505;50.882;5.350;2022-12-20T03:09:36;11.40;99.90
18753;DHT22;9505;50.882;5.350;2022-12-20T03:12:02;11.40;99.90
18753;DHT22;9505;50.882;5.350;2022-12-20T03:14:27;11.40;99.90
18753;DHT22;9505;50.882;5.350;2022-12-20T03:16:53;11.50;99.90
18753;DHT22;9505;50.882;5.350;2022-12-20T03:19:19;11.60;99.90
18753;DHT22;9505;50.882;5.350;2022-12-20T03:21:45;11.60;99.90
18753;DHT22;9505;50.882;5.350;2022-12-20T03:24:11;11.60;99.90
18753;DHT22;9505;50.882;5.350;2022-12-20T03:26:38;11.40;99.90
18753;DHT22;9505;50.882;5.350;2022-12-20T03:29:04;11.30;99.90
18753;DHT22;9505;50.882;5.350;2022-12-20T03:31:29;11.20;99.90
18753;DHT22;9505;50.882;5.350;2022-12-20T03:33:55;11.30;99.90
18753;DHT22;9505;50.882;5.350;2022-12-20T03:36:21;11.30;99.90
18753;DHT22;9505;50.882;5.350;2022-12-20T03:38:52;11.30;99.90
18753;DHT22;9505;50.882;5.350;2022-12-20T03:41:19;11.30;99.90
18753;DHT22;9505;50.882;5.350;2022-12-20T03:43:46;11.40;99.90
18753;DHT22;9505;50.882;5.350;2022-12-20T03:46:12;11.40;99.90
18753;DHT22;9505;50.882;5.350;2022-12-20T03:48:38;11.40;99.90
18753;DHT22;9505;50.882;5.350;2022-12-20T03:51:03;11.40;99.90
18753;DHT22;9505;50.882;5.350;2022-12-20T03:53:29;11.40;99.90
18753;DHT22;9505;50.882;5.350;2022-12-20T03:55:55;11.40;99.90
18753;DHT22;9505;50.882;5.350;2022-12-20T03:58:20;11.40;99.90
18753;DHT22;9505;50.882;5.350;2022-12-20T04:00:46;11.50;99.90
18753;DHT22;9505;50.882;5.350;2022-12-20T04:03:12;11.40;99.90
18753;DHT22;9505;50.882;5.350;2022-12-20T04:05:38;11.40;99.90
18753;DHT22;9505;50.882;5.350;2022-12-20T04:08:04;11.40;99.90
18753;DHT22;9505;50.882;5.350;2022-12-20T04:10:29;11.40;99.90
18753;DHT22;9505;50.882;5.350;2022-12-20T04:12:55;11.40;99.90
18753;DHT22;9505;50.882;5.350;2022-12-20T04:15:20;11.40;99.90
18753;DHT22;9505;50.882;5.350;2022-12-20T04:17:46;11.40;99.90
18753;DHT22;9505;50.882;5.350;2022-12-20T04:20:16;11.50;99.90
18753;DHT22;9505;50.882;5.350;2022-12-20T04:25:10;11.50;99.90
18753;DHT22;9505;50.882;5.350;2022-12-20T04:27:36;11.40;99.90
18753;DHT22;9505;50.882;5.350;2022-12-20T04:30:02;11.40;99.90
18753;DHT22;9505;50.882;5.350;2022-12-20T04:32:28;11.50;99.90
18753;DHT22;9505;50.882;5.350;2022-12-20T04:34:53;11.50;99.90
18753;DHT22;9505;50.882;5.350;2022-12-20T04:37:19;11.50;99.90
18753;DHT22;9505;50.882;5.350;2022-12-20T04:39:44;11.50;99.90
18753;DHT22;9505;50.882;5.350;2022-12-20T04:42:10;11.50;99.90
18753;DHT22;9505;50.882;5.350;2022-12-20T04:44:35;11.60;99.90
18753;DHT22;9505;50.882;5.350;2022-12-20T04:47:01;11.70;99.90
18753;DHT22;9505;50.882;5.350;2022-12-20T04:49:26;11.70;99.90
18753;DHT22;9505;50.882;5.350;2022-12-20T04:51:52;11.70;99.90
18753;DHT22;9505;50.882;5.350;2022-12-20T04:54:17;11.70;99.90
18753;DHT22;9505;50.882;5.350;2022-12-20T04:56:43;11.70;99.90
18753;DHT22;9505;50.882;5.350;2022-12-20T04:59:09;11.70;99.90
18753;DHT22;9505;50.882;5.350;2022-12-20T05:01:35;11.80;99.90
18753;DHT22;9505;50.882;5.350;2022-12-20T05:04:01;11.90;99.90
18753;DHT22;9505;50.882;5.350;2022-12-20T05:06:27;11.90;99.90
18753;DHT22;9505;50.882;5.350;2022-12-20T05:08:52;11.90;99.90
18753;DHT22;9505;50.882;5.350;2022-12-20T05:11:19;11.80;99.90
18753;DHT22;9505;50.882;5.350;2022-12-20T05:13:45;11.90;99.90
18753;DHT22;9505;50.882;5.350;2022-12-20T05:16:10;11.90;99.90
18753;DHT22;9505;50.882;5.350;2022-12-20T05:18:36;11.90;99.90
18753;DHT22;9505;50.882;5.350;2022-12-20T05:21:02;11.80;99.90
18753;DHT22;9505;50.882;5.350;2022-12-20T05:23:47;11.80;99.90
18753;DHT22;9505;50.882;5.350;2022-12-20T05:26:34;11.80;99.90
18753;DHT22;9505;50.882;5.350;2022-12-20T05:29:00;11.70;99.90
18753;DHT22;9505;50.882;5.350;2022-12-20T05:31:26;11.80;99.90
18753;DHT22;9505;50.882;5.350;2022-12-20T05:33:52;11.80;99.90
18753;DHT22;9505;50.882;5.350;2022-12-20T05:36:18;11.90;99.90
18753;DHT22;9505;50.882;5.350;2022-12-20T05:38:45;11.80;99.90
18753;DHT22;9505;50.882;5.350;2022-12-20T05:41:10;11.80;99.90
18753;DHT22;9505;50.882;5.350;2022-12-20T05:43:36;11.80;99.90
18753;DHT22;9505;50.882;5.350;2022-12-20T05:46:02;11.90;99.90
18753;DHT22;9505;50.882;5.350;2022-12-20T05:48:28;11.90;99.90
18753;DHT22;9505;50.882;5.350;2022-12-20T05:50:53;11.90;99.90
18753;DHT22;9505;50.882;5.350;2022-12-20T05:53:19;11.90;99.90
18753;DHT22;9505;50.882;5.350;2022-12-20T05:55:47;11.90;99.90
18753;DHT22;9505;50.882;5.350;2022-12-20T05:58:13;11.90;99.90
18753;DHT22;9505;50.882;5.350;2022-12-20T06:00:40;11.90;99.90
18753;DHT22;9505;50.882;5.350;2022-12-20T06:03:07;11.90;99.90
18753;DHT22;9505;50.882;5.350;2022-12-20T06:05:36;12.00;99.90
18753;DHT22;9505;50.882;5.350;2022-12-20T06:08:04;11.90;99.90
18753;DHT22;9505;50.882;5.350;2022-12-20T06:10:30;11.80;99.90
18753;DHT22;9505;50.882;5.350;2022-12-20T06:12:56;11.70;99.90
18753;DHT22;9505;50.882;5.350;2022-12-20T06:15:22;11.70;99.90
18753;DHT22;9505;50.882;5.350;2022-12-20T06:17:47;11.80;99.90
18753;DHT22;9505;50.882;5.350;2022-12-20T06:20:13;11.80;99.90
18753;DHT22;9505;50.882;5.350;2022-12-20T06:22:38;11.80;99.90
18753;DHT22;9505;50.882;5.350;2022-12-20T06:25:05;11.80;99.90
18753;DHT22;9505;50.882;5.350;2022-12-20T06:27:31;11.90;99.90
18753;DHT22;9505;50.882;5.350;2022-12-20T06:29:57;11.90;99.90
18753;DHT22;9505;50.882;5.350;2022-12-20T06:32:22;11.90;99.90
18753;DHT22;9505;50.882;5.350;2022-12-20T06:34:49;12.00;99.90
18753;DHT22;9505;50.882;5.350;2022-12-20T06:37:15;11.90;99.90
18753;DHT22;9505;50.882;5.350;2022-12-20T06:39:40;11.90;99.90
18753;DHT22;9505;50.882;5.350;2022-12-20T06:42:06;11.90;99.90
18753;DHT22;9505;50.882;5.350;2022-12-20T06:44:32;11.90;99.90
18753;DHT22;9505;50.882;5.350;2022-12-20T06:46:57;11.90;99.90
18753;DHT22;9505;50.882;5.350;2022-12-20T06:49:23;11.90;99.90
18753;DHT22;9505;50.882;5.350;2022-12-20T06:51:48;11.90;99.90
18753;DHT22;9505;50.882;5.350;2022-12-20T06:54:14;11.80;99.90
18753;DHT22;9505;50.882;5.350;2022-12-20T06:56:39;11.80;99.90
18753;DHT22;9505;50.882;5.350;2022-12-20T06:59:05;11.80;99.90
18753;DHT22;9505;50.882;5.350;2022-12-20T07:01:31;11.80;99.90
18753;DHT22;9505;50.882;5.350;2022-12-20T07:03:56;11.90;99.90
18753;DHT22;9505;50.882;5.350;2022-12-20T07:06:22;11.90;99.90
18753;DHT22;9505;50.882;5.350;2022-12-20T07:08:48;12.00;99.90
18753;DHT22;9505;50.882;5.350;2022-12-20T07:11:13;12.10;99.90
18753;DHT22;9505;50.882;5.350;2022-12-20T07:13:39;12.10;99.90
18753;DHT22;9505;50.882;5.350;2022-12-20T07:16:05;12.20;99.90
18753;DHT22;9505;50.882;5.350;2022-12-20T07:18:30;12.20;99.90
18753;DHT22;9505;50.882;5.350;2022-12-20T07:21:01;12.30;99.90
18753;DHT22;9505;50.882;5.350;2022-12-20T07:23:27;12.30;99.90
18753;DHT22;9505;50.882;5.350;2022-12-20T07:25:54;12.30;99.90
18753;DHT22;9505;50.882;5.350;2022-12-20T07:28:20;12.30;99.90
18753;DHT22;9505;50.882;5.350;2022-12-20T07:30:45;12.30;99.90
18753;DHT22;9505;50.882;5.350;2022-12-20T07:33:11;12.40;99.90
18753;DHT22;9505;50.882;5.350;2022-12-20T07:35:36;12.40;99.90
18753;DHT22;9505;50.882;5.350;2022-12-20T07:38:02;12.50;99.90
18753;DHT22;9505;50.882;5.350;2022-12-20T07:40:27;12.50;99.90
18753;DHT22;9505;50.882;5.350;2022-12-20T07:42:53;12.50;99.90
18753;DHT22;9505;50.882;5.350;2022-12-20T07:45:18;12.60;99.90
18753;DHT22;9505;50.882;5.350;2022-12-20T07:47:44;12.60;99.90
18753;DHT22;9505;50.882;5.350;2022-12-20T07:50:10;12.60;99.90
18753;DHT22;9505;50.882;5.350;2022-12-20T07:52:36;12.60;99.90
18753;DHT22;9505;50.882;5.350;2022-12-20T07:55:06;12.60;99.90
18753;DHT22;9505;50.882;5.350;2022-12-20T07:57:52;12.50;99.90
18753;DHT22;9505;50.882;5.350;2022-12-20T08:00:19;12.50;99.90
18753;DHT22;9505;50.882;5.350;2022-12-20T08:02:54;12.50;99.90
18753;DHT22;9505;50.882;5.350;2022-12-20T08:05:21;12.50;99.90
18753;DHT22;9505;50.882;5.350;2022-12-20T08:07:48;12.50;99.90
18753;DHT22;9505;50.882;5.350;2022-12-20T08:10:16;12.60;99.90
18753;DHT22;9505;50.882;5.350;2022-12-20T08:12:44;12.60;99.90
18753;DHT22;9505;50.882;5.350;2022-12-20T08:15:12;12.60;99.90
18753;DHT22;9505;50.882;5.350;2022-12-20T08:17:37;12.50;99.90
18753;DHT22;9505;50.882;5.350;2022-12-20T08:20:04;12.50;99.90
18753;DHT22;9505;50.882;5.350;2022-12-20T08:22:31;12.40;99.90
18753;DHT22;9505;50.882;5.350;2022-12-20T08:24:57;12.40;99.90
18753;DHT22;9505;50.882;5.350;2022-12-20T08:27:22;12.30;99.90
18753;DHT22;9505;50.882;5.350;2022-12-20T08:29:48;12.30;99.90
18753;DHT22;9505;50.882;5.350;2022-12-20T08:32:14;12.30;99.90
18753;DHT22;9505;50.882;5.350;2022-12-20T08:34:40;12.30;99.90
18753;DHT22;9505;50.882;5.350;2022-12-20T08:37:06;12.30;99.90
18753;DHT22;9505;50.882;5.350;2022-12-20T08:39:32;12.30;99.90
18753;DHT22;9505;50.882;5.350;2022-12-20T08:41:57;12.30;99.90
18753;DHT22;9505;50.882;5.350;2022-12-20T08:44:23;12.20;99.90
18753;DHT22;9505;50.882;5.350;2022-12-20T08:46:48;12.20;99.90
18753;DHT22;9505;50.882;5.350;2022-12-20T08:49:14;12.20;99.90
18753;DHT22;9505;50.882;5.350;2022-12-20T08:51:39;12.30;99.90
18753;DHT22;9505;50.882;5.350;2022-12-20T08:54:05;12.20;99.90
18753;DHT22;9505;50.882;5.350;2022-12-20T08:56:30;12.20;99.90
18753;DHT22;9505;50.882;5.350;2022-12-20T08:58:56;12.20;99.90
18753;DHT22;9505;50.882;5.350;2022-12-20T09:01:22;12.20;99.90
18753;DHT22;9505;50.882;5.350;2022-12-20T09:03:48;12.20;99.90
18753;DHT22;9505;50.882;5.350;2022-12-20T09:06:17;12.30;99.90
18753;DHT22;9505;50.882;5.350;2022-12-20T09:08:42;12.30;99.90
18753;DHT22;9505;50.882;5.350;2022-12-20T09:11:22;12.30;99.90
18753;DHT22;9505;50.882;5.350;2022-12-20T09:13:49;12.30;99.90
18753;DHT22;9505;50.882;5.350;2022-12-20T09:16:17;12.30;99.90
18753;DHT22;9505;50.882;5.350;2022-12-20T09:18:48;12.20;99.90
18753;DHT22;9505;50.882;5.350;2022-12-20T09:21:18;12.20;99.90
18753;DHT22;9505;50.882;5.350;2022-12-20T09:23:44;12.30;99.90
18753;DHT22;9505;50.882;5.350;2022-12-20T09:26:12;12.30;99.90
18753;DHT22;9505;50.882;5.350;2022-12-20T09:28:38;12.30;99.90
18753;DHT22;9505;50.882;5.350;2022-12-20T09:31:07;12.30;99.90
18753;DHT22;9505;50.882;5.350;2022-12-20T09:33:35;12.30;99.90
18753;DHT22;9505;50.882;5.350;2022-12-20T09:36:01;12.40;99.90
18753;DHT22;9505;50.882;5.350;2022-12-20T09:38:27;12.40;99.90
18753;DHT22;9505;50.882;5.350;2022-12-20T09:40:56;12.40;99.90
18753;DHT22;9505;50.882;5.350;2022-12-20T09:43:23;12.40;99.90
18753;DHT22;9505;50.882;5.350;2022-12-20T09:45:53;12.40;99.90
18753;DHT22;9505;50.882;5.350;2022-12-20T09:59:34;12.70;99.90
18753;DHT22;9505;50.882;5.350;2022-12-20T10:01:59;12.70;99.90
18753;DHT22;9505;50.882;5.350;2022-12-20T10:04:27;12.70;99.90
18753;DHT22;9505;50.882;5.350;2022-12-20T10:20:38;13.00;99.90
18753;DHT22;9505;50.882;5.350;2022-12-20T10:25:39;13.10;99.90
18753;DHT22;9505;50.882;5.350;2022-12-20T10:28:11;13.00;99.90
18753;DHT22;9505;50.882;5.350;2022-12-20T10:30:37;13.10;99.90
18753;DHT22;9505;50.882;5.350;2022-12-20T10:33:03;13.10;99.90
18753;DHT22;9505;50.882;5.350;2022-12-20T10:35:36;13.00;99.90
18753;DHT22;9505;50.882;5.350;2022-12-20T10:38:12;13.00;99.90
18753;DHT22;9505;50.882;5.350;2022-12-20T10:40:41;13.00;99.90
18753;DHT22;9505;50.882;5.350;2022-12-20T10:43:19;13.00;99.90
18753;DHT22;9505;50.882;5.350;2022-12-20T10:45:55;13.10;99.90
18753;DHT22;9505;50.882;5.350;2022-12-20T10:48:41;13.00;99.90
18753;DHT22;9505;50.882;5.350;2022-12-20T10:56:30;13.10;99.90
18753;DHT22;9505;50.882;5.350;2022-12-20T10:58:59;13.00;99.90
18753;DHT22;9505;50.882;5.350;2022-12-20T11:01:35;13.00;99.90
18753;DHT22;9505;50.882;5.350;2022-12-20T11:04:27;12.90;99.90
18753;DHT22;9505;50.882;5.350;2022-12-20T11:06:54;12.50;99.90
18753;DHT22;9505;50.882;5.350;2022-12-20T11:09:26;12.40;99.90
18753;DHT22;9505;50.882;5.350;2022-12-20T11:12:14;12.40;99.90
18753;DHT22;9505;50.882;5.350;2022-12-20T11:14:43;12.40;99.90
18753;DHT22;9505;50.882;5.350;2022-12-20T11:19:59;12.30;99.90
18753;DHT22;9505;50.882;5.350;2022-12-20T11:28:58;12.20;99.90
18753;DHT22;9505;50.882;5.350;2022-12-20T11:31:38;12.10;99.90
18753;DHT22;9505;50.882;5.350;2022-12-20T11:37:03;12.10;99.90
18753;DHT22;9505;50.882;5.350;2022-12-20T11:43:22;11.90;99.90
18753;DHT22;9505;50.882;5.350;2022-12-20T11:48:40;11.60;99.90
18753;DHT22;9505;50.882;5.350;2022-12-20T11:54:02;11.70;99.90
18753;DHT22;9505;50.882;5.350;2022-12-20T11:56:37;11.60;99.90
18753;DHT22;9505;50.882;5.350;2022-12-20T11:59:11;11.60;99.90
18753;DHT22;9505;50.882;5.350;2022-12-20T12:02:15;11.60;99.90
18753;DHT22;9505;50.882;5.350;2022-12-20T12:04:56;11.60;99.90
18753;DHT22;9505;50.882;5.350;2022-12-20T12:07:32;11.50;99.90
18753;DHT22;9505;50.882;5.350;2022-12-20T12:10:22;11.60;99.90
18753;DHT22;9505;50.882;5.350;2022-12-20T12:12:52;11.60;99.90
18753;DHT22;9505;50.882;5.350;2022-12-20T12:15:45;11.60;99.90
18753;DHT22;9505;50.882;5.350;2022-12-20T12:18:28;11.60;99.90
18753;DHT22;9505;50.882;5.350;2022-12-20T12:21:16;11.60;99.90
18753;DHT22;9505;50.882;5.350;2022-12-20T12:24:10;11.50;99.90
18753;DHT22;9505;50.882;5.350;2022-12-20T12:26:42;11.60;99.90
18753;DHT22;9505;50.882;5.350;2022-12-20T12:31:56;11.60;99.90
18753;DHT22;9505;50.882;5.350;2022-12-20T12:40:44;11.70;99.90
18753;DHT22;9505;50.882;5.350;2022-12-20T12:45:58;11.60;99.90
18753;DHT22;9505;50.882;5.350;2022-12-20T12:48:41;11.50;99.90
18753;DHT22;9505;50.882;5.350;2022-12-20T12:51:09;11.40;99.90
18753;DHT22;9505;50.882;5.350;2022-12-20T12:54:17;11.30;99.90
18753;DHT22;9505;50.882;5.350;2022-12-20T12:56:47;11.30;99.90
18753;DHT22;9505;50.882;5.350;2022-12-20T13:04:29;11.10;99.90
18753;DHT22;9505;50.882;5.350;2022-12-20T13:06:59;11.20;99.90
18753;DHT22;9505;50.882;5.350;2022-12-20T13:11:55;11.10;99.90
18753;DHT22;9505;50.882;5.350;2022-12-20T13:16:51;11.10;99.90
18753;DHT22;9505;50.882;5.350;2022-12-20T13:27:13;10.90;99.90
18753;DHT22;9505;50.882;5.350;2022-12-20T13:40:55;10.80;99.90
18753;DHT22;9505;50.882;5.350;2022-12-20T13:49:01;10.80;99.90
18753;DHT22;9505;50.882;5.350;2022-12-20T13:51:29;10.80;99.90
18753;DHT22;9505;50.882;5.350;2022-12-20T13:54:11;10.80;99.90
18753;DHT22;9505;50.882;5.350;2022-12-20T13:56:49;10.90;99.90
18753;DHT22;9505;50.882;5.350;2022-12-20T13:59:24;11.00;99.90
18753;DHT22;9505;50.882;5.350;2022-12-20T14:02:03;11.00;99.90
18753;DHT22;9505;50.882;5.350;2022-12-20T14:04:40;11.00;99.90
18753;DHT22;9505;50.882;5.350;2022-12-20T14:07:11;10.90;99.90
18753;DHT22;9505;50.882;5.350;2022-12-20T14:09:38;10.90;99.90
18753;DHT22;9505;50.882;5.350;2022-12-20T14:12:21;10.90;99.90
18753;DHT22;9505;50.882;5.350;2022-12-20T14:14:49;10.90;99.90
18753;DHT22;9505;50.882;5.350;2022-12-20T14:17:31;10.90;99.90
18753;DHT22;9505;50.882;5.350;2022-12-20T14:20:11;10.90;99.90
18753;DHT22;9505;50.882;5.350;2022-12-20T14:22:37;10.90;99.90
18753;DHT22;9505;50.882;5.350;2022-12-20T14:25:07;11.00;99.90
18753;DHT22;9505;50.882;5.350;2022-12-20T14:27:34;11.00;99.90
18753;DHT22;9505;50.882;5.350;2022-12-20T14:30:03;11.10;99.90
18753;DHT22;9505;50.882;5.350;2022-12-20T14:32:30;11.00;99.90
18753;DHT22;9505;50.882;5.350;2022-12-20T14:34:56;11.00;99.90
18753;DHT22;9505;50.882;5.350;2022-12-20T14:37:33;11.00;99.90
18753;DHT22;9505;50.882;5.350;2022-12-20T14:40:18;11.10;99.90
18753;DHT22;9505;50.882;5.350;2022-12-20T14:42:45;11.10;99.90
18753;DHT22;9505;50.882;5.350;2022-12-20T14:48:14;11.10;99.90
18753;DHT22;9505;50.882;5.350;2022-12-20T14:50:50;11.00;99.90
18753;DHT22;9505;50.882;5.350;2022-12-20T14:53:22;11.00;99.90
18753;DHT22;9505;50.882;5.350;2022-12-20T14:55:49;11.10;99.90
18753;DHT22;9505;50.882;5.350;2022-12-20T14:58:33;11.00;99.90
18753;DHT22;9505;50.882;5.350;2022-12-20T15:01:18;11.00;99.90
18753;DHT22;9505;50.882;5.350;2022-12-20T15:03:55;11.00;99.90
18753;DHT22;9505;50.882;5.350;2022-12-20T15:06:31;11.00;99.90
18753;DHT22;9505;50.882;5.350;2022-12-20T15:08:57;11.00;99.90
18753;DHT22;9505;50.882;5.350;2022-12-20T15:11:23;11.10;99.90
18753;DHT22;9505;50.882;5.350;2022-12-20T15:13:51;11.00;99.90
18753;DHT22;9505;50.882;5.350;2022-12-20T15:18:48;11.10;99.90
18753;DHT22;9505;50.882;5.350;2022-12-20T15:21:20;11.10;99.90
18753;DHT22;9505;50.882;5.350;2022-12-20T15:23:50;11.10;99.90
18753;DHT22;9505;50.882;5.350;2022-12-20T15:26:18;11.00;99.90
18753;DHT22;9505;50.882;5.350;2022-12-20T15:28:44;11.00;99.90
18753;DHT22;9505;50.882;5.350;2022-12-20T15:31:11;11.10;99.90
18753;DHT22;9505;50.882;5.350;2022-12-20T15:33:38;11.00;99.90
18753;DHT22;9505;50.882;5.350;2022-12-20T15:36:05;11.00;99.90
18753;DHT22;9505;50.882;5.350;2022-12-20T15:38:30;11.00;99.90
18753;DHT22;9505;50.882;5.350;2022-12-20T15:41:02;11.00;99.90
18753;DHT22;9505;50.882;5.350;2022-12-20T15:43:34;11.00;99.90
18753;DHT22;9505;50.882;5.350;2022-12-20T15:46:00;10.90;99.90
18753;DHT22;9505;50.882;5.350;2022-12-20T15:48:26;10.90;99.90
18753;DHT22;9505;50.882;5.350;2022-12-20T15:50:54;10.80;99.90
18753;DHT22;9505;50.882;5.350;2022-12-20T15:53:23;10.90;99.90
18753;DHT22;9505;50.882;5.350;2022-12-20T15:55:50;10.90;99.90
18753;DHT22;9505;50.882;5.350;2022-12-20T15:58:16;10.90;99.90
18753;DHT22;9505;50.882;5.350;2022-12-20T16:00:42;10.90;99.90
18753;DHT22;9505;50.882;5.350;2022-12-20T16:03:17;11.00;99.90
18753;DHT22;9505;50.882;5.350;2022-12-20T16:05:43;11.00;99.90
18753;DHT22;9505;50.882;5.350;2022-12-20T16:08:08;11.00;99.90
18753;DHT22;9505;50.882;5.350;2022-12-20T16:10:34;11.00;99.90
18753;DHT22;9505;50.882;5.350;2022-12-20T16:13:00;11.00;99.90
18753;DHT22;9505;50.882;5.350;2022-12-20T16:15:26;11.00;99.90
18753;DHT22;9505;50.882;5.350;2022-12-20T16:17:51;10.90;99.90
18753;DHT22;9505;50.882;5.350;2022-12-20T16:20:17;10.80;99.90
18753;DHT22;9505;50.882;5.350;2022-12-20T16:22:43;10.90;99.90
18753;DHT22;9505;50.882;5.350;2022-12-20T16:25:28;10.80;99.90
18753;DHT22;9505;50.882;5.350;2022-12-20T16:27:54;10.90;99.90
18753;DHT22;9505;50.882;5.350;2022-12-20T16:30:20;10.80;99.90
18753;DHT22;9505;50.882;5.350;2022-12-20T16:32:47;10.80;99.90
18753;DHT22;9505;50.882;5.350;2022-12-20T16:35:28;10.90;99.90
18753;DHT22;9505;50.882;5.350;2022-12-20T16:37:56;10.80;99.90
18753;DHT22;9505;50.882;5.350;2022-12-20T16:40:24;10.80;99.90
18753;DHT22;9505;50.882;5.350;2022-12-20T16:42:51;10.80;99.90
18753;DHT22;9505;50.882;5.350;2022-12-20T16:45:25;10.80;99.90
18753;DHT22;9505;50.882;5.350;2022-12-20T16:47:51;10.70;99.90
18753;DHT22;9505;50.882;5.350;2022-12-20T16:50:19;10.70;99.90
18753;DHT22;9505;50.882;5.350;2022-12-20T16:52:45;10.70;99.90
18753;DHT22;9505;50.882;5.350;2022-12-20T16:55:23;10.80;99.90
18753;DHT22;9505;50.882;5.350;2022-12-20T16:57:49;10.80;99.90
18753;DHT22;9505;50.882;5.350;2022-12-20T17:00:17;10.90;99.90
18753;DHT22;9505;50.882;5.350;2022-12-20T17:02:43;10.90;99.90
18753;DHT22;9505;50.882;5.350;2022-12-20T17:05:24;10.90;99.90
18753;DHT22;9505;50.882;5.350;2022-12-20T17:07:51;10.90;99.90
18753;DHT22;9505;50.882;5.350;2022-12-20T17:10:17;10.90;99.90
18753;DHT22;9505;50.882;5.350;2022-12-20T17:12:43;10.80;99.90
18753;DHT22;9505;50.882;5.350;2022-12-20T17:15:29;10.90;99.90
18753;DHT22;9505;50.882;5.350;2022-12-20T17:17:56;10.80;99.90
18753;DHT22;9505;50.882;5.350;2022-12-20T17:20:23;10.80;99.90
18753;DHT22;9505;50.882;5.350;2022-12-20T17:22:53;10.90;99.90
18753;DHT22;9505;50.882;5.350;2022-12-20T17:25:25;11.00;99.90
18753;DHT22;9505;50.882;5.350;2022-12-20T17:27:52;11.00;99.90
18753;DHT22;9505;50.882;5.350;2022-12-20T17:30:18;11.00;99.90
18753;DHT22;9505;50.882;5.350;2022-12-20T17:32:44;10.90;99.90
18753;DHT22;9505;50.882;5.350;2022-12-20T17:35:18;10.90;99.90
18753;DHT22;9505;50.882;5.350;2022-12-20T17:37:45;10.90;99.90
18753;DHT22;9505;50.882;5.350;2022-12-20T17:40:14;10.90;99.90
18753;DHT22;9505;50.882;5.350;2022-12-20T17:42:41;10.90;99.90
18753;DHT22;9505;50.882;5.350;2022-12-20T17:45:30;10.90;99.90
18753;DHT22;9505;50.882;5.350;2022-12-20T17:47:57;10.90;99.90
18753;DHT22;9505;50.882;5.350;2022-12-20T17:50:24;10.90;99.90
18753;DHT22;9505;50.882;5.350;2022-12-20T17:52:51;10.90;99.90
18753;DHT22;9505;50.882;5.350;2022-12-20T17:55:27;10.80;99.90
18753;DHT22;9505;50.882;5.350;2022-12-20T17:57:53;10.80;99.90
18753;DHT22;9505;50.882;5.350;2022-12-20T18:00:28;10.80;99.90
18753;DHT22;9505;50.882;5.350;2022-12-20T18:02:54;10.80;99.90
18753;DHT22;9505;50.882;5.350;2022-12-20T18:05:21;10.80;99.90
18753;DHT22;9505;50.882;5.350;2022-12-20T18:07:54;10.80;99.90
18753;DHT22;9505;50.882;5.350;2022-12-20T18:10:21;10.80;99.90